Time;durP1;ratioP1;P1;durP2;ratioP2;P2;SDS_P1;SDS_P2;PMS_P1;PMS_P2;Temp;Humidity;BMP_temperature;BMP_pressure;BME280_temperature;BME280_humidity;BME280_pressure;Samples;Min_cycle;Max_cycle;Signal;HPM_P1;HPM_P2
2022/04/26 03:37:22;;;;;;;13.13;10.58;;;;;;;8.91;100.00;100334.86;1618513;88;21547;-78
2022/04/26 03:39:50;;;;;;;13.78;10.08;;;;;;;9.02;100.00;100334.88;1618977;88;21054;-77
2022/04/26 03:42:17;;;;;;;12.65;10.20;;;;;;;9.12;100.00;100333.77;1618616;88;21007;-77
2022/04/26 03:44:44;;;;;;;17.02;10.70;;;;;;;9.23;100.00;100336.86;1618667;88;21054;-77
2022/04/26 03:47:11;;;;;;;17.60;11.43;;;;;;;9.32;100.00;100340.09;1618880;88;21361;-77
2022/04/26 03:49:40;;;;;;;13.83;10.45;;;;;;;9.44;100.00;100344.36;1618641;88;21086;-78
2022/04/26 03:52:08;;;;;;;14.98;10.82;;;;;;;9.55;100.00;100346.63;1618978;87;21026;-77
2022/04/26 03:54:36;;;;;;;12.85;10.58;;;;;;;9.65;100.00;100345.00;1618759;88;21043;-81
2022/04/26 03:57:06;;;;;;;16.20;10.23;;;;;;;9.78;100.00;100342.27;1618870;87;21536;-78
2022/04/26 03:59:33;;;;;;;16.70;10.98;;;;;;;9.90;100.00;100350.91;1618531;88;21263;-77
2022/04/26 04:02:01;;;;;;;13.93;11.00;;;;;;;10.01;100.00;100349.63;1618688;88;21058;-78
2022/04/26 04:04:29;;;;;;;15.18;11.55;;;;;;;10.16;100.00;100355.88;1618661;88;21595;-77
2022/04/26 04:06:56;;;;;;;14.80;11.00;;;;;;;10.27;100.00;100355.89;1618688;88;21663;-76
2022/04/26 04:09:23;;;;;;;14.18;10.48;;;;;;;10.37;100.00;100351.66;1618905;88;20966;-77
2022/04/26 04:11:52;;;;;;;13.40;10.55;;;;;;;10.51;100.00;100349.73;1618688;88;21027;-77
2022/04/26 04:14:21;;;;;;;13.08;10.80;;;;;;;10.63;100.00;100348.74;1618759;87;21055;-78
2022/04/26 04:16:48;;;;;;;15.93;10.88;;;;;;;10.76;100.00;100349.08;1618727;88;21024;-77
2022/04/26 04:19:19;;;;;;;13.85;11.18;;;;;;;10.89;100.00;100347.14;1618781;88;21022;-77
2022/04/26 04:21:50;;;;;;;13.22;10.58;;;;;;;11.02;100.00;100353.00;1618688;88;21007;-78
2022/04/26 04:24:19;;;;;;;14.00;10.60;;;;;;;11.16;100.00;100350.58;1618833;88;22270;-77
2022/04/26 04:26:47;;;;;;;16.37;11.28;;;;;;;11.29;100.00;100351.70;1618643;88;21951;-77
2022/04/26 04:29:16;;;;;;;14.58;11.78;;;;;;;11.44;100.00;100352.69;1618879;88;21481;-78
2022/04/26 04:31:43;;;;;;;13.43;10.60;;;;;;;11.56;100.00;100346.92;1618732;88;21019;-78
2022/04/26 04:34:10;;;;;;;14.98;10.50;;;;;;;11.68;100.00;100343.30;1618826;88;21166;-78
2022/04/26 04:36:39;;;;;;;13.18;10.45;;;;;;;11.81;100.00;100345.70;1618670;88;21956;-80
2022/04/26 04:39:06;;;;;;;15.30;11.78;;;;;;;11.92;100.00;100344.30;1618787;88;20991;-77
2022/04/26 04:41:37;;;;;;;15.18;11.43;;;;;;;12.05;100.00;100344.11;1618746;88;21114;-76
2022/04/26 04:44:07;;;;;;;14.15;11.00;;;;;;;12.18;100.00;100339.97;1619038;88;21011;-77
2022/04/26 04:46:35;;;;;;;13.72;11.25;;;;;;;12.34;100.00;100342.55;1618699;88;21118;-77
2022/04/26 04:49:04;;;;;;;14.60;10.78;;;;;;;12.48;100.00;100338.74;1618159;88;21078;-77
2022/04/26 04:51:32;;;;;;;12.73;9.83;;;;;;;12.61;100.00;100337.53;1618577;88;21058;-77
2022/04/26 04:53:59;;;;;;;14.85;10.90;;;;;;;12.77;100.00;100340.91;1618734;88;20991;-77
2022/04/26 04:56:27;;;;;;;17.87;11.80;;;;;;;12.91;100.00;100339.69;1618669;88;21571;-79
2022/04/26 04:58:55;;;;;;;15.75;10.68;;;;;;;13.07;100.00;100335.20;1618692;88;21528;-77
2022/04/26 05:01:24;;;;;;;15.08;10.65;;;;;;;13.23;100.00;100337.73;1618295;88;21146;-78
2022/04/26 05:03:53;;;;;;;14.05;11.35;;;;;;;13.37;100.00;100343.86;1599955;89;21078;-76
2022/04/26 05:06:21;;;;;;;12.85;10.30;;;;;;;13.52;100.00;100340.82;1593162;88;21014;-80
2022/04/26 05:08:49;;;;;;;15.00;10.15;;;;;;;13.66;100.00;100336.94;1601003;89;21039;-77
2022/04/26 05:11:18;;;;;;;13.05;10.38;;;;;;;13.81;100.00;100341.21;1600974;89;20999;-76
2022/04/26 05:13:47;;;;;;;12.07;10.30;;;;;;;13.92;100.00;100337.12;1601333;89;21528;-77
2022/04/26 05:16:15;;;;;;;12.53;9.93;;;;;;;14.06;100.00;100331.87;1600948;89;21493;-77
2022/04/26 05:18:42;;;;;;;12.58;10.75;;;;;;;14.20;100.00;100337.95;1601185;89;21116;-77
2022/04/26 05:21:15;;;;;;;12.18;10.85;;;;;;;14.34;100.00;100334.49;1600920;89;21030;-78
2022/04/26 05:26:29;;;;;;;14.87;10.50;;;;;;;14.63;100.00;100326.45;1600037;89;22034;-78
2022/04/26 05:28:56;;;;;;;13.20;9.90;;;;;;;14.80;100.00;100332.69;1600877;89;21018;-78
2022/04/26 05:31:23;;;;;;;14.15;10.80;;;;;;;14.95;100.00;100333.00;1600211;89;21003;-77
2022/04/26 05:33:51;;;;;;;15.63;10.18;;;;;;;15.09;100.00;100326.87;1600616;89;20991;-77
2022/04/26 05:36:18;;;;;;;15.88;10.40;;;;;;;15.24;100.00;100332.41;1600695;89;21568;-77
2022/04/26 05:38:49;;;;;;;13.18;10.00;;;;;;;15.40;100.00;100338.23;1593612;89;40087;-77
2022/04/26 05:41:16;;;;;;;12.93;10.48;;;;;;;15.56;100.00;100332.28;1600539;89;21512;-76
2022/04/26 05:43:43;;;;;;;14.35;10.50;;;;;;;15.70;100.00;100330.39;1600670;89;20999;-77
2022/04/26 05:46:13;;;;;;;14.07;10.55;;;;;;;15.82;100.00;100332.26;1600628;89;21590;-78
2022/04/26 05:48:40;;;;;;;15.60;11.40;;;;;;;15.95;100.00;100327.92;1601051;89;21104;-79
2022/04/26 05:51:08;;;;;;;13.90;11.12;;;;;;;16.11;100.00;100332.40;1600447;89;21168;-83
2022/04/26 05:53:36;;;;;;;14.15;10.25;;;;;;;16.24;100.00;100330.64;1600722;89;21162;-83
2022/04/26 05:56:05;;;;;;;13.00;10.63;;;;;;;16.36;100.00;100325.44;1600562;89;21101;-83
2022/04/26 05:58:33;;;;;;;13.83;10.00;;;;;;;16.51;100.00;100322.18;1615302;88;21055;-78
2022/04/26 06:01:00;;;;;;;15.10;10.15;;;;;;;16.66;100.00;100321.87;1607414;88;21662;-78
2022/04/26 06:03:28;;;;;;;12.55;8.93;;;;;;;16.81;100.00;100315.97;1607931;89;21171;-77
2022/04/26 06:05:57;;;;;;;10.00;8.63;;;;;;;16.97;100.00;100319.14;1587251;89;21508;-77
2022/04/26 06:08:24;;;;;;;9.60;7.58;;;;;;;17.12;100.00;100317.48;1582952;89;21046;-77
2022/04/26 06:10:52;;;;;;;5.80;4.20;;;;;;;17.28;100.00;100325.03;1604972;87;21009;-77
2022/04/26 06:13:21;;;;;;;5.83;3.62;;;;;;;17.41;100.00;100328.47;1605198;88;21447;-78
2022/04/26 06:15:50;;;;;;;6.62;3.15;;;;;;;17.52;100.00;100328.11;1605083;89;21091;-77
2022/04/26 06:18:17;;;;;;;4.67;3.65;;;;;;;17.64;100.00;100325.94;1605186;89;21477;-77
2022/04/26 06:20:44;;;;;;;6.08;3.90;;;;;;;17.77;100.00;100325.41;1605082;89;21033;-77
2022/04/26 06:23:15;;;;;;;5.00;3.67;;;;;;;17.89;100.00;100327.18;1605325;89;21042;-78
2022/04/26 06:25:42;;;;;;;5.47;3.47;;;;;;;18.00;100.00;100325.53;1605169;89;21026;-77
2022/04/26 06:28:10;;;;;;;7.28;4.12;;;;;;;18.11;100.00;100319.05;1605437;89;21157;-77
2022/04/26 06:30:38;;;;;;;4.78;4.25;;;;;;;18.24;100.00;100323.77;1605152;89;21471;-78
2022/04/26 06:33:07;;;;;;;6.03;3.92;;;;;;;18.40;100.00;100329.44;1605274;89;21705;-77
2022/04/26 06:35:35;;;;;;;5.55;4.17;;;;;;;18.53;100.00;100324.43;1612346;88;21097;-80
2022/04/26 06:38:04;;;;;;;5.92;3.98;;;;;;;18.66;100.00;100325.17;1615106;88;21062;-79
2022/04/26 06:40:31;;;;;;;5.35;4.15;;;;;;;18.78;100.00;100324.75;1605048;89;21158;-77
2022/04/26 06:42:59;;;;;;;5.33;3.98;;;;;;;18.87;100.00;100321.86;1605088;89;21097;-78
2022/04/26 06:45:31;;;;;;;10.68;4.58;;;;;;;18.95;100.00;100320.20;1595762;88;21113;-78
2022/04/26 06:47:58;;;;;;;6.50;4.40;;;;;;;19.04;100.00;100324.39;1605362;89;21053;-78
2022/04/26 06:50:28;;;;;;;4.37;3.80;;;;;;;19.13;100.00;100324.65;1578571;89;21011;-79
2022/04/26 06:52:57;;;;;;;;;;;;;;;19.18;100.00;100320.16;1587122;89;21476;-80
2022/04/26 06:55:24;;;;;;;8.63;4.20;;;;;;;19.22;100.00;100319.63;1608661;87;20143;-78
2022/04/26 06:57:53;;;;;;;6.50;3.80;;;;;;;19.28;100.00;100323.37;1608593;88;21105;-78
2022/04/26 07:00:21;;;;;;;11.45;3.95;;;;;;;19.31;100.00;100320.35;1608420;89;21600;-79
2022/04/26 07:02:48;;;;;;;4.95;4.05;;;;;;;19.33;100.00;100318.87;1595139;89;21057;-78
2022/04/26 07:05:17;;;;;;;5.15;3.92;;;;;;;19.38;100.00;100321.78;1593284;89;21532;-79
2022/04/26 07:07:50;;;;;;;6.00;3.92;;;;;;;19.46;100.00;100326.17;1588525;89;21112;-79
2022/04/26 07:10:17;;;;;;;7.90;3.35;;;;;;;19.48;100.00;100321.02;1574199;91;21006;-79
2022/04/26 07:12:46;;;;;;;6.42;3.72;;;;;;;19.51;100.00;100319.84;1574301;90;21133;-81
2022/04/26 07:15:13;;;;;;;6.60;3.90;;;;;;;19.55;100.00;100316.66;1554383;90;21031;-78
2022/04/26 07:17:43;;;;;;;6.28;4.00;;;;;;;19.57;100.00;100324.39;1552708;92;21004;-78
2022/04/26 07:20:12;;;;;;;5.97;3.75;;;;;;;19.64;100.00;100317.38;1546503;90;21640;-78
2022/04/26 07:22:41;;;;;;;6.28;4.25;;;;;;;19.70;100.00;100323.27;1562529;89;21492;-78
2022/04/26 07:25:10;;;;;;;5.25;3.80;;;;;;;19.74;100.00;100322.40;1552447;90;21038;-78
2022/04/26 07:27:40;;;;;;;7.05;4.33;;;;;;;19.80;100.00;100320.34;1552437;90;20991;-78
2022/04/26 07:30:13;;;;;;;10.68;4.40;;;;;;;19.86;100.00;100318.31;1565170;89;21007;-81
2022/04/26 07:35:35;;;;;;;6.25;4.35;;;;;;;20.01;100.00;100320.11;1561651;90;21066;-80
2022/04/26 07:38:07;;;;;;;7.55;4.90;;;;;;;20.05;100.00;100313.95;1563319;91;21096;-79
2022/04/26 07:40:34;;;;;;;6.83;4.00;;;;;;;20.11;100.00;100318.52;1547719;90;21109;-78
2022/04/26 07:43:02;;;;;;;4.83;4.33;;;;;;;20.15;100.00;100316.61;1557315;90;21334;-79
2022/04/26 07:45:31;;;;;;;5.67;4.12;;;;;;;20.23;100.00;100313.57;1565566;89;21565;-79
2022/04/26 07:48:00;;;;;;;6.70;5.08;;;;;;;20.32;100.00;100313.75;1557539;90;21190;-78
2022/04/26 07:50:29;;;;;;;4.55;4.08;;;;;;;20.41;100.00;100315.27;1554681;90;21098;-78
2022/04/26 07:52:58;;;;;;;6.72;4.10;;;;;;;20.48;100.00;100310.87;1561909;90;21530;-80
2022/04/26 07:55:26;;;;;;;6.20;4.25;;;;;;;20.56;100.00;100305.14;1535818;92;22271;-79
2022/04/26 07:57:53;;;;;;;6.10;4.22;;;;;;;20.63;99.43;100301.56;1569998;91;21487;-78
2022/04/26 08:00:28;;;;;;;5.30;3.90;;;;;;;20.69;94.12;100300.48;1582200;90;21639;-81
2022/04/26 08:02:58;;;;;;;6.75;4.10;;;;;;;20.74;96.73;100294.16;1570484;89;21035;-79
2022/04/26 08:05:26;;;;;;;8.20;4.25;;;;;;;20.77;93.57;100301.22;1554850;92;21655;-79
2022/04/26 08:07:55;;;;;;;3.80;3.40;;;;;;;20.77;89.53;100301.22;1578928;89;21689;-80
2022/04/26 08:10:24;;;;;;;6.15;3.80;;;;;;;20.77;98.53;100303.02;1581121;89;20990;-79
2022/04/26 08:12:52;;;;;;;9.78;4.37;;;;;;;20.84;100.00;100303.90;1586292;90;21576;-80
2022/04/26 08:15:21;;;;;;;5.62;4.15;;;;;;;20.91;93.69;100298.67;1571172;89;21083;-83
2022/04/26 08:17:49;;;;;;;4.85;3.62;;;;;;;20.95;96.90;100303.91;1582443;90;21103;-79
2022/04/26 08:20:16;;;;;;;5.75;3.85;;;;;;;21.01;98.83;100303.14;1582278;88;21225;-79
2022/04/26 08:22:45;;;;;;;6.33;3.95;;;;;;;21.09;91.08;100306.97;1572464;89;21050;-79
2022/04/26 08:27:58;;;;;;;6.25;3.70;;;;;;;21.28;87.46;100304.63;1588683;89;21027;-81
2022/04/26 08:30:26;;;;;;;4.72;3.58;;;;;;;21.42;92.30;100305.05;1556616;89;21095;-78
2022/04/26 08:35:39;;;;;;;6.28;3.47;;;;;;;21.61;76.41;100298.75;1829136;77;21998;-84
2022/04/26 08:38:07;;;;;;;6.58;3.58;;;;;;;21.64;78.83;100306.31;1715555;81;21065;-81
2022/04/26 08:40:36;;;;;;;3.58;3.10;;;;;;;21.73;74.39;100306.95;1764520;80;21029;-78
2022/04/26 08:43:04;;;;;;;3.90;3.17;;;;;;;21.84;74.49;100298.95;1748432;81;21566;-79
2022/04/26 08:45:41;;;;;;;4.67;3.45;;;;;;;21.93;73.71;100293.80;1727749;80;20974;-78
2022/04/26 08:51:06;;;;;;;6.28;3.70;;;;;;;22.04;72.16;100298.53;1762059;81;21780;-80
2022/04/26 08:53:34;;;;;;;5.40;2.92;;;;;;;22.12;74.08;100300.17;1758245;81;21221;-84
2022/04/26 08:56:06;;;;;;;4.62;3.25;;;;;;;22.18;76.28;100306.52;1741461;81;20980;-78
2022/04/26 08:58:35;;;;;;;5.58;3.52;;;;;;;22.21;71.80;100302.16;1761312;80;21080;-77
2022/04/26 09:01:19;;;;;;;4.17;3.00;;;;;;;22.14;77.84;100301.32;1762007;81;21060;-78
2022/04/26 09:03:55;;;;;;;6.60;3.67;;;;;;;22.09;68.53;100299.76;1735768;82;21109;-79
2022/04/26 09:06:43;;;;;;;10.35;4.80;;;;;;;22.02;74.03;100303.21;1755369;81;21988;-78
2022/04/26 09:09:21;;;;;;;4.40;3.77;;;;;;;22.03;74.20;100307.50;1760946;80;21124;-79
2022/04/26 09:11:56;;;;;;;6.62;4.05;;;;;;;22.13;73.42;100297.03;1761924;81;21522;-78
2022/04/26 09:14:35;;;;;;;5.90;3.12;;;;;;;22.25;66.63;100300.72;1754196;80;21557;-78
2022/04/26 09:17:07;;;;;;;4.83;3.45;;;;;;;22.33;68.88;100291.26;1762394;81;21088;-81
2022/04/26 09:19:46;;;;;;;6.95;3.22;;;;;;;22.41;65.05;100297.42;1760771;81;21317;-78
2022/04/26 09:22:26;;;;;;;5.70;3.22;;;;;;;22.47;71.27;100304.08;1760182;80;21060;-79
2022/04/26 09:25:07;;;;;;;6.72;4.25;;;;;;;22.59;71.27;100296.86;1753291;81;21108;-78
2022/04/26 09:27:38;;;;;;;5.22;3.40;;;;;;;22.73;73.44;100297.66;1737160;79;21061;-78
2022/04/26 09:30:11;;;;;;;4.33;3.10;;;;;;;22.84;66.55;100297.06;1756215;81;21080;-78
2022/04/26 09:32:49;;;;;;;12.33;3.75;;;;;;;22.95;63.77;100299.12;1748458;81;21104;-79
2022/04/26 09:35:23;;;;;;;4.08;3.02;;;;;;;23.08;65.47;100295.61;1756627;81;21053;-79
2022/04/26 09:37:52;;;;;;;3.37;2.98;;;;;;;23.21;59.89;100300.12;1732915;81;21018;-78
2022/04/26 09:40:20;;;;;;;5.70;3.00;;;;;;;23.33;61.31;100305.61;1756232;81;21010;-78
2022/04/26 09:42:50;;;;;;;5.92;2.45;;;;;;;23.48;57.01;100297.42;1757027;80;21064;-78
2022/04/26 09:45:18;;;;;;;6.47;3.05;;;;;;;23.58;59.89;100287.67;1755407;81;21113;-84
2022/04/26 09:47:45;;;;;;;6.00;3.05;;;;;;;23.69;56.21;100295.50;1754066;81;21572;-84
2022/04/26 09:50:17;;;;;;;4.67;2.52;;;;;;;23.78;57.40;100302.22;1755652;81;21080;-78
2022/04/26 09:52:45;;;;;;;6.63;2.73;;;;;;;23.77;55.42;100300.09;1755940;81;21065;-79
2022/04/26 09:55:14;;;;;;;3.90;3.15;;;;;;;23.77;56.25;100295.27;1756382;80;21025;-78
2022/04/26 09:57:49;;;;;;;4.25;3.00;;;;;;;23.77;55.52;100296.10;1754740;81;21897;-79
2022/04/26 10:00:19;;;;;;;6.45;2.98;;;;;;;23.79;55.57;100286.58;1755810;81;22023;-79
2022/04/26 10:02:56;;;;;;;5.25;2.37;;;;;;;23.86;53.61;100298.00;1754303;81;21072;-79
2022/04/26 10:05:29;;;;;;;2.60;2.40;;;;;;;23.91;54.29;100298.69;1751839;81;21112;-81
2022/04/26 10:07:58;;;;;;;3.58;2.35;;;;;;;23.90;54.34;100301.05;1731945;80;21010;-78
2022/04/26 10:10:28;;;;;;;4.47;2.72;;;;;;;23.90;53.41;100299.22;1756455;81;21783;-79
2022/04/26 10:15:48;;;;;;;2.45;2.15;;;;;;;24.06;54.14;100295.27;1723550;82;21077;-83
2022/04/26 10:18:45;;;;;;;4.83;2.72;;;;;;;24.17;52.20;100296.44;1732826;80;21066;-78
2022/04/26 10:21:28;;;;;;;3.98;2.72;;;;;;;24.22;52.09;100294.47;1751551;80;21033;-78
2022/04/26 10:24:04;;;;;;;5.33;2.85;;;;;;;24.23;52.81;100296.94;1735271;81;21559;-78
2022/04/26 10:26:35;;;;;;;4.58;2.65;;;;;;;24.29;52.33;100293.11;1749955;81;21085;-77
2022/04/26 10:29:17;;;;;;;3.42;3.05;;;;;;;24.35;50.77;100290.92;1756255;81;21119;-85
2022/04/26 10:31:58;;;;;;;3.87;2.47;;;;;;;24.38;49.23;100289.17;1741271;80;20978;-78
2022/04/26 10:34:31;;;;;;;12.40;3.30;;;;;;;24.43;51.69;100299.17;1757733;80;20959;-81
2022/04/26 10:37:10;;;;;;;3.05;2.55;;;;;;;24.49;51.63;100301.77;1798925;78;22157;-79
2022/04/26 10:39:50;;;;;;;5.80;3.00;;;;;;;24.54;50.70;100301.13;1810693;78;21058;-79
2022/04/26 10:42:22;;;;;;;4.83;2.90;;;;;;;24.53;51.48;100298.99;1808811;79;21052;-79
2022/04/26 10:44:51;;;;;;;6.97;3.00;;;;;;;24.53;50.06;100293.67;1807682;79;21034;-79
2022/04/26 10:47:24;;;;;;;6.17;3.52;;;;;;;24.54;51.29;100298.46;1812188;79;21068;-78
2022/04/26 10:49:54;;;;;;;4.72;2.65;;;;;;;24.58;49.41;100295.16;1787696;78;21199;-79
2022/04/26 10:52:36;;;;;;;4.45;2.52;;;;;;;24.62;49.28;100298.73;1807495;78;21358;-78
2022/04/26 10:55:14;;;;;;;4.35;2.90;;;;;;;24.62;50.37;100301.39;1738780;82;21038;-79
2022/04/26 10:57:49;;;;;;;4.20;2.45;;;;;;;24.68;48.83;100292.56;1717727;83;21508;-80
2022/04/26 11:00:30;;;;;;;5.20;2.65;;;;;;;24.72;48.06;100293.25;1800096;79;20990;-79
2022/04/26 11:03:04;;;;;;;5.15;2.80;;;;;;;24.74;47.85;100297.02;1814622;79;21127;-80
2022/04/26 11:05:34;;;;;;;4.30;2.72;;;;;;;24.72;48.14;100289.75;1783989;79;21190;-79
2022/04/26 11:08:05;;;;;;;4.45;2.87;;;;;;;24.73;46.83;100292.72;1807012;79;21088;-81
2022/04/26 11:13:35;;;;;;;3.00;2.30;;;;;;;24.77;50.28;100283.28;1811810;78;21034;-79
2022/04/26 11:16:07;;;;;;;3.95;2.72;;;;;;;24.85;48.37;100279.52;1806584;79;21103;-79
2022/04/26 11:18:40;;;;;;;3.45;2.72;;;;;;;24.86;47.55;100283.81;1758738;80;21689;-78
2022/04/26 11:21:05;;;;;;;4.37;2.40;;;;;;;24.86;48.26;100276.66;1752674;81;21019;-78
2022/04/26 11:29:21;;;;;;;4.53;2.25;;;;;;;25.07;46.61;100272.47;1796974;79;20994;-78
2022/04/26 11:31:49;;;;;;;5.12;2.30;;;;;;;25.15;46.50;100268.99;1802663;79;21637;-79
2022/04/26 11:34:16;;;;;;;4.80;2.22;;;;;;;25.24;46.63;100263.38;1773950;80;21037;-78
2022/04/26 11:36:44;;;;;;;5.03;2.20;;;;;;;25.33;46.28;100271.37;1730531;82;21096;-79
2022/04/26 11:39:12;;;;;;;7.22;2.75;;;;;;;25.37;45.18;100263.22;1785182;79;20981;-78
2022/04/26 11:41:39;;;;;;;7.97;3.30;;;;;;;25.36;45.42;100262.42;1809007;79;21223;-79
2022/04/26 11:44:09;;;;;;;6.87;2.90;;;;;;;25.33;44.44;100260.19;1792446;79;20967;-79
2022/04/26 11:46:36;;;;;;;4.97;2.58;;;;;;;25.26;46.20;100263.45;1788343;79;21112;-79
2022/04/26 11:49:04;;;;;;;2.83;2.05;;;;;;;25.24;46.39;100260.71;1800540;78;21034;-78
2022/04/26 11:51:32;;;;;;;8.03;2.65;;;;;;;25.22;45.30;100260.11;1808791;78;21033;-78
2022/04/26 11:53:59;;;;;;;3.87;2.37;;;;;;;25.19;44.64;100262.70;1795658;78;21574;-78
2022/04/26 11:56:29;;;;;;;4.78;2.45;;;;;;;25.19;45.30;100261.37;1800723;79;20981;-78
2022/04/26 11:58:57;;;;;;;4.50;2.30;;;;;;;25.28;46.33;100256.05;1782863;78;21085;-78
2022/04/26 12:01:27;;;;;;;4.03;2.40;;;;;;;25.30;46.29;100256.66;1796903;78;21943;-84
2022/04/26 12:03:57;;;;;;;2.85;2.20;;;;;;;25.30;46.79;100261.98;1792298;79;21033;-79
2022/04/26 12:06:35;;;;;;;3.25;2.92;;;;;;;25.29;45.06;100263.02;1799526;79;21861;-79
2022/04/26 12:09:08;;;;;;;4.95;2.70;;;;;;;25.30;45.17;100265.15;1764295;80;21563;-78
2022/04/26 12:11:38;;;;;;;3.60;2.83;;;;;;;25.38;46.19;100264.05;1788800;79;21602;-85
2022/04/26 12:14:14;;;;;;;5.25;3.15;;;;;;;25.41;45.34;100265.78;1806551;79;21090;-80
2022/04/26 12:16:48;;;;;;;3.52;2.65;;;;;;;25.33;44.49;100264.72;1789801;78;21021;-78
2022/04/26 12:19:17;;;;;;;4.33;2.35;;;;;;;25.27;45.21;100262.95;1807047;79;22305;-78
2022/04/26 12:21:54;;;;;;;6.40;2.87;;;;;;;25.32;46.46;100261.75;1803928;78;21083;-79
2022/04/26 12:24:27;;;;;;;6.47;2.75;;;;;;;25.36;44.93;100260.26;1812362;78;21092;-78
2022/04/26 12:27:07;;;;;;;4.80;2.77;;;;;;;25.40;43.72;100258.02;1794467;78;21369;-79
2022/04/26 12:29:43;;;;;;;3.60;2.60;;;;;;;25.40;45.70;100258.02;1805307;78;21021;-78
2022/04/26 12:32:15;;;;;;;4.10;2.62;;;;;;;25.40;43.79;100256.69;1797655;79;20983;-79
2022/04/26 12:34:53;;;;;;;5.42;2.90;;;;;;;25.35;46.50;100257.33;1801163;78;21545;-79
2022/04/26 12:37:25;;;;;;;4.85;2.90;;;;;;;25.31;45.95;100251.63;1780040;78;20911;-78
2022/04/26 12:39:58;;;;;;;4.40;2.72;;;;;;;25.38;46.79;100254.73;1759079;81;21677;-80
2022/04/26 12:42:31;;;;;;;6.58;2.50;;;;;;;25.30;45.27;100259.82;1746470;80;21733;-78
2022/04/26 12:45:10;;;;;;;4.92;2.80;;;;;;;25.27;46.09;100250.95;1741231;80;21247;-78
2022/04/26 12:50:33;;;;;;;2.50;2.30;;;;;;;25.04;44.95;100257.72;1744064;81;21085;-85
2022/04/26 12:53:13;;;;;;;5.22;2.87;;;;;;;25.01;46.17;100256.84;1744939;81;21030;-78
2022/04/26 12:55:43;;;;;;;2.70;2.50;;;;;;;24.99;46.53;100252.25;1743359;81;21278;-85
2022/04/26 12:58:15;;;;;;;5.65;2.70;;;;;;;25.02;47.89;100258.48;1737019;82;21039;-78
2022/04/26 13:00:51;;;;;;;3.60;2.20;;;;;;;25.02;43.71;100252.62;1742697;81;21131;-78
2022/04/26 13:03:22;;;;;;;5.50;2.20;;;;;;;24.87;44.44;100246.34;1726730;81;21069;-79
2022/04/26 13:05:54;;;;;;;3.12;2.42;;;;;;;24.75;45.46;100244.61;1746479;80;21074;-78
2022/04/26 13:08:23;;;;;;;3.45;2.10;;;;;;;24.67;44.05;100253.66;1756528;80;21570;-79
2022/04/26 13:10:51;;;;;;;2.77;2.58;;;;;;;24.56;44.96;100247.98;1760345;80;21129;-79
2022/04/26 13:13:20;;;;;;;4.55;2.80;;;;;;;24.47;46.56;100249.30;1766707;80;20995;-79
2022/04/26 13:15:49;;;;;;;3.87;2.52;;;;;;;24.37;46.49;100250.29;1761979;81;21054;-78
2022/04/26 13:18:18;;;;;;;5.85;2.67;;;;;;;24.31;46.11;100246.64;1758593;80;21551;-78
2022/04/26 13:20:47;;;;;;;5.55;3.10;;;;;;;24.31;47.56;100254.63;1758801;80;21001;-78
2022/04/26 13:23:16;;;;;;;3.22;2.75;;;;;;;24.30;46.08;100252.19;1768797;80;21740;-78
2022/04/26 13:25:44;;;;;;;4.47;3.22;;;;;;;24.19;49.55;100251.83;1738705;82;21014;-78
2022/04/26 13:28:12;;;;;;;3.52;2.77;;;;;;;24.10;48.43;100251.28;1752180;81;21030;-78
2022/04/26 13:30:41;;;;;;;3.27;2.60;;;;;;;24.03;50.28;100253.67;1747185;80;21023;-80
2022/04/26 13:33:09;;;;;;;3.42;2.37;;;;;;;24.00;49.16;100254.08;1795089;79;20990;-84
2022/04/26 13:35:38;;;;;;;3.62;2.40;;;;;;;23.98;49.28;100262.28;1776559;79;21046;-78
2022/04/26 13:38:12;;;;;;;3.02;2.55;;;;;;;23.91;46.73;100260.98;1745635;80;21093;-79
2022/04/26 13:40:43;;;;;;;3.35;2.27;;;;;;;23.79;47.76;100258.67;1742829;81;20948;-78
2022/04/26 13:43:11;;;;;;;3.67;2.40;;;;;;;23.71;48.66;100257.58;1728519;82;21031;-78
2022/04/26 13:45:39;;;;;;;4.05;2.62;;;;;;;23.68;49.39;100263.30;1741939;82;21067;-79
2022/04/26 13:48:12;;;;;;;4.08;2.30;;;;;;;23.67;51.43;100254.53;1745941;82;21249;-78
2022/04/26 13:50:44;;;;;;;2.72;2.02;;;;;;;23.71;49.70;100260.23;1740181;81;21030;-78
2022/04/26 13:53:12;;;;;;;5.83;2.00;;;;;;;23.70;50.52;100261.26;1739956;82;21102;-78
2022/04/26 13:55:40;;;;;;;2.58;2.12;;;;;;;23.70;49.22;100254.61;1740368;82;21051;-78
2022/04/26 13:58:10;;;;;;;3.00;2.45;;;;;;;23.71;50.37;100266.88;1739801;82;21851;-80
2022/04/26 14:00:38;;;;;;;3.77;2.05;;;;;;;23.73;50.54;100263.50;1726677;80;22043;-78
2022/04/26 14:03:06;;;;;;;6.20;2.37;;;;;;;23.72;48.96;100266.66;1742679;82;21073;-78
2022/04/26 14:05:34;;;;;;;2.30;1.90;;;;;;;23.66;51.15;100270.70;1745867;80;21570;-77
2022/04/26 14:08:04;;;;;;;3.92;2.50;;;;;;;23.59;50.80;100259.58;1783602;78;21006;-77
2022/04/26 14:10:33;;;;;;;5.12;2.50;;;;;;;23.54;51.19;100271.34;1791860;79;21023;-79
2022/04/26 14:13:06;;;;;;;5.35;2.95;;;;;;;23.42;49.79;100265.85;1747210;82;21613;-80
2022/04/26 14:24:04;;;;;;;4.87;3.02;;;;;;;22.81;55.96;100272.25;1776955;79;21040;-77
2022/04/26 14:26:30;;;;;;;7.03;3.50;;;;;;;22.68;53.34;100268.59;1801783;79;21066;-77
2022/04/26 14:28:58;;;;;;;6.20;3.22;;;;;;;22.65;53.83;100270.30;1744102;82;21046;-77
2022/04/26 14:31:28;;;;;;;4.30;2.80;;;;;;;22.65;57.17;100272.16;1711956;82;21568;-77
2022/04/26 14:33:56;;;;;;;5.35;2.83;;;;;;;22.63;56.59;100269.72;1739668;80;21007;-77
2022/04/26 14:36:24;;;;;;;5.20;3.60;;;;;;;22.59;58.33;100268.48;1808734;78;21029;-78
2022/04/26 14:38:51;;;;;;;3.72;3.20;;;;;;;22.59;58.08;100276.44;1797472;78;21786;-78
2022/04/26 14:41:21;;;;;;;4.28;2.90;;;;;;;22.54;55.55;100276.23;1807154;78;21010;-79
2022/04/26 14:43:50;;;;;;;5.53;2.60;;;;;;;22.47;54.52;100276.22;1812890;78;21500;-77
2022/04/26 14:46:18;;;;;;;5.62;2.37;;;;;;;22.38;54.29;100276.91;1787013;80;21055;-82
2022/04/26 14:48:47;;;;;;;5.33;2.65;;;;;;;22.29;54.08;100278.59;1761445;80;21078;-81
2022/04/26 14:51:16;;;;;;;5.03;2.62;;;;;;;22.19;56.00;100284.30;1754615;80;21270;-79
2022/04/26 14:53:45;;;;;;;6.87;3.00;;;;;;;22.11;55.89;100281.33;1775120;80;20994;-78
2022/04/26 14:56:17;;;;;;;2.77;2.20;;;;;;;22.03;54.17;100277.02;1763722;80;21065;-78
2022/04/26 14:58:49;;;;;;;5.28;2.33;;;;;;;22.00;55.59;100288.52;1785712;79;21084;-78
2022/04/26 15:01:14;;;;;;;3.70;2.00;;;;;;;21.92;57.29;100288.18;1761195;80;21018;-78
2022/04/26 15:03:44;;;;;;;7.80;3.08;;;;;;;21.84;59.11;100288.34;1776231;80;21080;-77
2022/04/26 15:06:14;;;;;;;6.95;2.72;;;;;;;21.76;57.23;100292.00;1779802;80;21508;-77
2022/04/26 15:11:28;;;;;;;5.25;1.87;;;;;;;21.64;58.75;100289.59;1784655;80;22020;-78
2022/04/26 15:16:46;;;;;;;3.58;1.77;;;;;;;21.54;58.95;100289.43;1772185;80;22047;-78
2022/04/26 15:19:14;;;;;;;3.95;1.87;;;;;;;21.50;61.26;100299.28;1755198;81;21027;-79
2022/04/26 15:21:43;;;;;;;1.67;1.57;;;;;;;21.42;60.60;100286.52;1761073;79;21004;-78
2022/04/26 15:24:18;;;;;;;5.30;1.72;;;;;;;21.37;61.79;100292.08;1775934;80;21516;-80
2022/04/26 15:26:46;;;;;;;3.62;1.42;;;;;;;21.33;57.96;100294.78;1782460;80;21042;-78
2022/04/26 15:29:13;;;;;;;3.47;1.25;;;;;;;21.30;56.79;100296.00;1783996;80;21518;-78
2022/04/26 15:31:42;;;;;;;5.12;1.60;;;;;;;21.24;56.45;100302.07;1750923;81;21021;-79
2022/04/26 15:34:11;;;;;;;5.20;1.45;;;;;;;21.19;58.60;100305.30;1749758;82;21066;-77
2022/04/26 15:36:38;;;;;;;3.95;1.72;;;;;;;21.12;59.46;100303.91;1759411;80;21041;-78
2022/04/26 15:39:05;;;;;;;2.80;1.70;;;;;;;21.05;56.89;100304.89;1733518;82;21656;-80
2022/04/26 15:41:33;;;;;;;4.35;2.00;;;;;;;21.00;58.04;100308.11;1744533;82;21261;-80
2022/04/26 15:44:03;;;;;;;8.08;1.70;;;;;;;20.93;59.70;100303.27;1748847;81;21128;-79
2022/04/26 15:46:31;;;;;;;4.12;1.45;;;;;;;20.87;58.96;100306.69;1757905;79;21065;-82
2022/04/26 15:49:02;;;;;;;4.10;1.52;;;;;;;20.82;60.28;100309.91;1746313;82;20990;-79
2022/04/26 15:51:31;;;;;;;2.75;1.47;;;;;;;20.77;63.76;100309.64;1742522;80;21562;-79